Kodak, Tennessee
Current Conditions -  °F | °C
As of 12:35 PM on Thursday 23 Oct 2014 (Local Time) from KGKT Reporting Station
Clear Clear  
Wind Chill: 55°   Ceiling: Unl
Heat Index: 55°   Visibility: 10mi
Dew Point: 39°   Wind: 8mph
Humidity: 54%   Direction: 30°NNE
Pressure: 30.18"   Gusts: NA
Location:  35.97°N, 83.63°W
Report Text: KGKT 231635Z AUTO 03007KT 10SM CLR 13/04 A3018 RMK
Loading
Personal Weather Stations






























Interactive Weather Map
Tropical Storm Tracking
New forecast layout! Learn more

10-Day Weather Forecast

Advertisements
Track Severe Weather on mobile